Time;durP1;ratioP1;P1;durP2;ratioP2;P2;SDS_P1;SDS_P2;PMS_P1;PMS_P2;Temp;Humidity;BMP_temperature;BMP_pressure;BME280_temperature;BME280_humidity;BME280_pressure;Samples;Min_cycle;Max_cycle;Signal;HPM_P1;HPM_P2
2019/04/24 00:01:27;;;;;;;2.5;1.3;;;;;;;13.2;55.72852;924.4102;;;;
2019/04/24 00:03:50;;;;;;;1.7;1.3;;;;;;;13.31;55.46582;924.4991;;;;
2019/04/24 00:06:25;;;;;;;2.5;1.2;;;;;;;13.51;54.96289;924.4433;;;;
2019/04/24 00:08:53;;;;;;;2.7;1.1;;;;;;;13.59;54.7998;924.3655;;;;
2019/04/24 00:11:25;;;;;;;4.5;1.2;;;;;;;13.49;55.56934;924.3823;;;;
2019/04/24 00:13:51;;;;;;;2.8;1.4;;;;;;;13.31;56.18945;924.4224;;;;
2019/04/24 00:16:13;;;;;;;2.9;1.2;;;;;;;13.28;56.08301;924.5374;;;;
2019/04/24 00:18:37;;;;;;;8.2;1.4;;;;;;;13.5;54.83496;924.462;;;;
2019/04/24 00:21:01;;;;;;;3.5;1.2;;;;;;;13.55;55.30176;924.46;;;;
2019/04/24 00:23:27;;;;;;;3.4;1.1;;;;;;;13.65;55.56543;924.4731;;;;
2019/04/24 00:25:55;;;;;;;3;1.3;;;;;;;13.62;55.0332;924.4387;;;;
2019/04/24 00:28:18;;;;;;;4.1;1.2;;;;;;;13.48;55.1084;924.4305;;;;
2019/04/24 00:30:43;;;;;;;3.9;1.3;;;;;;;13.31;56.14453;924.5069;;;;
2019/04/24 00:33:08;;;;;;;4.2;1.3;;;;;;;13.27;55.74805;924.5591;;;;
2019/04/24 00:35:44;;;;;;;2.4;1;;;;;;;13.12;56.15332;924.5061;;;;
2019/04/24 00:37:59;;;;;;;4.2;1;;;;;;;13.3;55.79785;924.5217;;;;
2019/04/24 00:40:24;;;;;;;1.8;1.1;;;;;;;13.36;55.23145;924.4066;;;;
2019/04/24 00:42:50;;;;;;;2.3;1.1;;;;;;;13.05;56.12207;924.4844;;;;
2019/04/24 00:45:15;;;;;;;1.6;1;;;;;;;13.01;56.54199;924.4426;;;;
2019/04/24 00:47:40;;;;;;;1.9;1;;;;;;;12.66;57.5293;924.4052;;;;
2019/04/24 00:50:06;;;;;;;2.7;1.1;;;;;;;12.52;57.47656;924.4014;;;;
2019/04/24 00:52:31;;;;;;;2.6;1;;;;;;;12.23;58.33203;924.395;;;;
2019/04/24 00:54:57;;;;;;;1.5;0.9;;;;;;;12.16;58.74609;924.5004;;;;
2019/04/24 00:57:23;;;;;;;3.1;0.9;;;;;;;12.39;58.69824;924.4772;;;;
2019/04/24 00:59:48;;;;;;;2.9;1;;;;;;;12.69;58.17578;924.4396;;;;
2019/04/24 01:04:45;;;;;;;2.3;0.9;;;;;;;12.5;57.67969;924.3483;;;;
2019/04/24 01:07:45;;;;;;;1.4;0.9;;;;;;;12.64;57.25098;924.459;;;;
2019/04/24 01:09:36;;;;;;;2;1.2;;;;;;;12.6;57.50977;924.5697;;;;
2019/04/24 01:11:54;;;;;;;3.4;0.8;;;;;;;12.72;57.57227;924.4869;;;;
2019/04/24 01:14:19;;;;;;;2.2;0.9;;;;;;;12.82;56.78223;924.3469;;;;
2019/04/24 01:16:44;;;;;;;2.9;0.8;;;;;;;12.82;56.35742;924.4324;;;;
2019/04/24 01:19:09;;;;;;;3.4;0.9;;;;;;;12.72;57.75586;924.3807;;;;
2019/04/24 01:21:34;;;;;;;3.8;1.2;;;;;;;11.89;61.43555;924.423;;;;
2019/04/24 01:24:02;;;;;;;2.4;1.1;;;;;;;11.85;60.99512;924.4365;;;;
2019/04/24 01:26:25;;;;;;;1.9;1;;;;;;;11.7;60.42383;924.4291;;;;
2019/04/24 01:28:50;;;;;;;1.8;0.9;;;;;;;11.44;61.41699;924.3797;;;;
2019/04/24 01:31:22;;;;;;;2.4;1;;;;;;;11.8;60.28906;924.4172;;;;
2019/04/24 01:33:55;;;;;;;12.5;1.7;;;;;;;11.98;59.86719;924.3999;;;;
2019/04/24 01:36:47;;;;;;;17.2;2.1;;;;;;;12.26;58.65625;924.4511;;;;
2019/04/24 01:40:58;;;;;;;2.3;0.8;;;;;;;11.51;61.50781;924.4774;;;;
2019/04/24 01:43:23;;;;;;;3.1;0.7;;;;;;;11.4;61.69824;924.5067;;;;
2019/04/24 01:45:49;;;;;;;18.9;2.1;;;;;;;11.45;62.08203;924.4808;;;;
2019/04/24 01:48:13;;;;;;;3;0.8;;;;;;;11.4;62.30469;924.4939;;;;
2019/04/24 01:50:38;;;;;;;4.1;0.8;;;;;;;11.45;61.44141;924.574;;;;
2019/04/24 01:53:03;;;;;;;2.6;0.8;;;;;;;11.66;61.03711;924.6289;;;;
2019/04/24 01:55:28;;;;;;;2.7;0.8;;;;;;;11.82;60.30273;924.662;;;;
2019/04/24 01:57:53;;;;;;;5.7;0.9;;;;;;;11.96;59.68164;924.6914;;;;
2019/04/24 02:00:28;;;;;;;4.3;1.2;;;;;;;11.9;60.91113;924.5369;;;;
2019/04/24 02:02:45;;;;;;;3.3;1;;;;;;;12.1;60.00977;924.5767;;;;
2019/04/24 02:05:09;;;;;;;6.8;1.1;;;;;;;12.35;59.49414;924.6057;;;;
2019/04/24 02:07:45;;;;;;;4.1;0.8;;;;;;;12.09;60.05469;924.6758;;;;
2019/04/24 02:10:13;;;;;;;2.4;0.8;;;;;;;12.15;60.17773;924.6978;;;;
2019/04/24 02:12:26;;;;;;;3.4;0.9;;;;;;;12.43;58.94336;924.6722;;;;
2019/04/24 02:14:52;;;;;;;4.4;1.1;;;;;;;12.42;58.93066;924.7115;;;;
2019/04/24 02:17:16;;;;;;;2.8;0.9;;;;;;;12.47;59.2002;924.7402;;;;
2019/04/24 02:19:42;;;;;;;3.7;0.8;;;;;;;12.45;58.90137;924.8354;;;;
2019/04/24 02:22:07;;;;;;;1.5;0.8;;;;;;;12.21;59.17773;924.8438;;;;
2019/04/24 02:24:32;;;;;;;3.6;0.8;;;;;;;12.21;59.23535;924.9331;;;;
2019/04/24 02:26:58;;;;;;;1.6;0.7;;;;;;;12.38;58.63965;924.9291;;;;
2019/04/24 02:29:24;;;;;;;3.5;0.8;;;;;;;12.67;57.64551;924.9536;;;;
2019/04/24 02:31:58;;;;;;;1.7;1.1;;;;;;;12.54;59.26758;924.9144;;;;
2019/04/24 02:34:17;;;;;;;1.8;0.9;;;;;;;12.14;60.43945;924.9924;;;;
2019/04/24 02:36:43;;;;;;;2.2;0.9;;;;;;;12.23;59.375;924.8969;;;;
2019/04/24 02:39:17;;;;;;;15.7;2.2;;;;;;;12.16;59.7207;924.9648;;;;
2019/04/24 02:43:54;;;;;;;3.5;1;;;;;;;12;60.23633;925.0186;;;;
2019/04/24 02:46:19;;;;;;;2.1;0.9;;;;;;;12.25;59.46777;924.9971;;;;
2019/04/24 02:48:44;;;;;;;3.7;0.8;;;;;;;12.41;58.66699;924.9894;;;;
2019/04/24 02:51:12;;;;;;;3.4;1;;;;;;;12.25;59.83496;924.9971;;;;
2019/04/24 02:53:34;;;;;;;6.6;1.3;;;;;;;12.19;59.08398;925.0457;;;;
2019/04/24 02:55:59;;;;;;;6.8;1;;;;;;;12.49;58.28711;925.0144;;;;
2019/04/24 02:58:25;;;;;;;1.2;0.6;;;;;;;12.19;58.87598;925.0594;;;;
2019/04/24 03:00:50;;;;;;;1.3;0.6;;;;;;;12.28;58.625;925.1083;;;;
2019/04/24 03:03:16;;;;;;;1;0.5;;;;;;;12.6;57.69238;925.0856;;;;
2019/04/24 03:05:41;;;;;;;4.6;1.1;;;;;;;12.53;59.83887;925.0862;;;;
2019/04/24 03:08:06;;;;;;;3.7;1.2;;;;;;;12.22;61.10449;925.1404;;;;
2019/04/24 03:10:32;;;;;;;4.1;0.9;;;;;;;11.91;60.23535;925.2202;;;;
2019/04/24 03:17:49;;;;;;;7.1;0.9;;;;;;;12.29;59.00488;925.0897;;;;
2019/04/24 03:20:15;;;;;;;5.3;1.2;;;;;;;12.08;61.36035;925.204;;;;
2019/04/24 03:22:40;;;;;;;4.1;1;;;;;;;12.42;59.5498;925.2479;;;;
2019/04/24 03:25:05;;;;;;;2.7;0.9;;;;;;;12.52;57.94629;925.2189;;;;
2019/04/24 03:27:31;;;;;;;6.5;1.1;;;;;;;11.95;59.54395;925.2706;;;;
2019/04/24 03:29:55;;;;;;;7.5;2.1;;;;;;;11.94;58.46387;925.2685;;;;
2019/04/24 03:32:20;;;;;;;5.2;2.1;;;;;;;12.06;58.50391;925.3002;;;;
2019/04/24 03:34:45;;;;;;;2.6;1.2;;;;;;;12.23;58.04492;925.2583;;;;
2019/04/24 03:37:17;;;;;;;5.9;1.2;;;;;;;12.52;57.21191;925.2916;;;;
2019/04/24 03:39:36;;;;;;;3.3;1.1;;;;;;;12.14;58.36523;925.2996;;;;
2019/04/24 03:42:01;;;;;;;6.2;1.4;;;;;;;12.38;58.12207;925.3937;;;;
2019/04/24 03:44:27;;;;;;;6.3;1.1;;;;;;;12.38;57.64063;925.3515;;;;
2019/04/24 03:47:19;;;;;;;4.1;1.3;;;;;;;12.43;58.52051;925.4169;;;;
2019/04/24 03:49:17;;;;;;;6.3;1.9;;;;;;;12.23;59.59277;925.4164;;;;
2019/04/24 03:51:42;;;;;;;5.3;1.7;;;;;;;12.43;58.09375;925.3795;;;;
2019/04/24 03:54:16;;;;;;;7.4;1.5;;;;;;;12.42;57.29102;925.4994;;;;
2019/04/24 03:56:40;;;;;;;6.8;1.7;;;;;;;12.5;56.99121;925.4389;;;;
2019/04/24 03:59:11;;;;;;;5.7;1.4;;;;;;;12.44;57.07617;925.5566;;;;
2019/04/24 04:02:46;;;;;;;10;1.8;;;;;;;12.6;57.08398;925.6566;;;;
2019/04/24 04:04:58;;;;;;;4.2;1.5;;;;;;;12.78;56.75195;925.6175;;;;
2019/04/24 04:07:26;;;;;;;4.3;1.2;;;;;;;12.94;55.64844;925.6274;;;;
2019/04/24 04:09:51;;;;;;;4.3;1.2;;;;;;;12.49;56.97949;925.6905;;;;
2019/04/24 04:12:17;;;;;;;5.7;1.1;;;;;;;12.78;56.23633;925.6294;;;;
2019/04/24 04:14:42;;;;;;;9.9;3.9;;;;;;;12.85;56.1543;925.6133;;;;
2019/04/24 04:17:16;;;;;;;13.1;5.8;;;;;;;12.35;57.39648;925.6481;;;;
2019/04/24 04:19:33;;;;;;;12.9;6.9;;;;;;;12.09;58.26758;925.7048;;;;
2019/04/24 04:21:58;;;;;;;13.8;6.4;;;;;;;12.19;58.00488;925.736;;;;
2019/04/24 04:24:56;;;;;;;11;5.3;;;;;;;12.39;57.57422;925.8222;;;;
2019/04/24 04:27:14;;;;;;;8.1;3.4;;;;;;;11.93;59.08105;925.8781;;;;
2019/04/24 04:30:03;;;;;;;7.9;2.7;;;;;;;12.24;58.41309;925.8064;;;;
2019/04/24 04:34:42;;;;;;;10.6;3.3;;;;;;;12.57;58.03418;925.9455;;;;
2019/04/24 04:37:04;;;;;;;12.7;3;;;;;;;12.66;57.00098;925.9648;;;;
2019/04/24 04:39:36;;;;;;;9.3;2.6;;;;;;;12.59;58.46094;926.0153;;;;
2019/04/24 04:41:56;;;;;;;10.5;5.8;;;;;;;12.78;57.33887;925.9872;;;;
2019/04/24 04:44:19;;;;;;;10.7;2.7;;;;;;;12.72;56.36621;925.983;;;;
2019/04/24 04:47:03;;;;;;;11.5;2.6;;;;;;;12.47;57.02148;926.0303;;;;
2019/04/24 04:51:01;;;;;;;13.4;3.1;;;;;;;12.56;56.87305;926.0662;;;;
2019/04/24 04:51:46;;;;;;;7.1;3.2;;;;;;;12.69;56.27148;926.0497;;;;
2019/04/24 04:54:04;;;;;;;10.4;4.4;;;;;;;12.43;57.33887;926.03;;;;
2019/04/24 04:56:29;;;;;;;10;3.6;;;;;;;12.15;58.28613;926.0942;;;;
2019/04/24 04:58:57;;;;;;;15.5;3.2;;;;;;;12.35;58.08398;926.1638;;;;
2019/04/24 05:01:48;;;;;;;8.1;2.4;;;;;;;12.32;57.68945;926.1714;;;;
2019/04/24 05:03:50;;;;;;;5.4;1.2;;;;;;;11.87;58.84473;926.2252;;;;
2019/04/24 05:06:12;;;;;;;9.3;1.6;;;;;;;11.91;59.27344;926.2883;;;;
2019/04/24 05:08:44;;;;;;;10.1;1.5;;;;;;;12.17;58.39258;926.4744;;;;
2019/04/24 05:11:10;;;;;;;15.1;2.6;;;;;;;12.19;58.40625;926.5188;;;;
2019/04/24 05:13:35;;;;;;;11.1;1.6;;;;;;;12.52;57.25781;926.6025;;;;
2019/04/24 05:16:00;;;;;;;5.3;1.1;;;;;;;12.19;58.34863;926.6042;;;;
2019/04/24 05:18:25;;;;;;;11.7;1.5;;;;;;;12.52;57.54492;926.6418;;;;
2019/04/24 05:20:52;;;;;;;9.5;1.7;;;;;;;13.11;57.42773;926.5912;;;;
2019/04/24 05:23:21;;;;;;;13.4;1.8;;;;;;;13.44;56.31055;926.7126;;;;
2019/04/24 05:25:49;;;;;;;9;1.9;;;;;;;13.3;57.05176;926.7512;;;;
2019/04/24 05:28:07;;;;;;;21.6;2.8;;;;;;;13.46;56.46191;926.698;;;;
2019/04/24 05:30:46;;;;;;;10.1;2;;;;;;;13.66;55.5;926.7403;;;;
2019/04/24 05:32:57;;;;;;;13.7;2;;;;;;;13.65;54.91211;926.7502;;;;
2019/04/24 05:35:34;;;;;;;11.1;2.4;;;;;;;13.64;58.42969;926.7216;;;;
2019/04/24 05:38:04;;;;;;;14.5;2.3;;;;;;;13.77;56.83594;926.7269;;;;
2019/04/24 05:40:21;;;;;;;14.7;3.5;;;;;;;13.83;55.90137;926.6978;;;;
2019/04/24 05:42:39;;;;;;;16;3.2;;;;;;;13.78;55.16895;926.6235;;;;
2019/04/24 05:45:05;;;;;;;9.1;1.5;;;;;;;13.46;56.27832;926.6124;;;;
2019/04/24 05:47:34;;;;;;;17.5;2.3;;;;;;;14.58;52.88477;926.6978;;;;
2019/04/24 05:50:05;;;;;;;7.7;1.3;;;;;;;15.76;49.46875;926.6425;;;;
2019/04/24 05:52:23;;;;;;;14.4;1.9;;;;;;;16.91;46.32031;926.5643;;;;
2019/04/24 05:55:08;;;;;;;5.1;0.9;;;;;;;17.73;43.40137;926.4705;;;;
2019/04/24 05:57:19;;;;;;;4.4;0.7;;;;;;;18.8;40.0498;926.5808;;;;
2019/04/24 05:59:39;;;;;;;5.7;1.2;;;;;;;19.6;37.84961;926.6355;;;;
2019/04/24 06:02:04;;;;;;;5.9;1;;;;;;;20.59;36.71973;926.4995;;;;
2019/04/24 06:04:29;;;;;;;6;1.3;;;;;;;21.66;35.64941;926.5072;;;;
2019/04/24 06:07:14;;;;;;;4.8;0.7;;;;;;;21.92;32.35352;926.4883;;;;
2019/04/24 06:09:27;;;;;;;8.2;0.9;;;;;;;21.43;33.03223;926.4794;;;;
2019/04/24 06:11:46;;;;;;;6.9;0.9;;;;;;;21.62;32.76563;926.3794;;;;
2019/04/24 06:16:41;;;;;;;3.7;0.6;;;;;;;22.05;31.70605;926.3514;;;;
2019/04/24 06:19:15;;;;;;;4.1;0.6;;;;;;;22.57;31.2041;926.3373;;;;
2019/04/24 06:21:25;;;;;;;4.9;0.9;;;;;;;22.73;30.83984;926.3284;;;;
2019/04/24 06:23:51;;;;;;;2.4;0.7;;;;;;;22.64;30.21094;926.3875;;;;
2019/04/24 06:26:16;;;;;;;2;0.6;;;;;;;23.05;29.39355;926.3691;;;;
2019/04/24 06:28:45;;;;;;;4.5;0.6;;;;;;;21.76;31.22949;926.2841;;;;
2019/04/24 06:31:14;;;;;;;3.9;0.8;;;;;;;21.89;31.54297;926.3544;;;;
2019/04/24 06:33:35;;;;;;;3.6;0.9;;;;;;;22.75;29.98438;926.361;;;;
2019/04/24 06:36:17;;;;;;;3.5;0.6;;;;;;;23.36;29.37793;926.3699;;;;
2019/04/24 06:38:30;;;;;;;3;0.6;;;;;;;24.35;28.65332;926.3542;;;;
2019/04/24 06:43:20;;;;;;;2.1;0.5;;;;;;;24.03;26.76172;926.4285;;;;
2019/04/24 06:45:41;;;;;;;8.4;0.8;;;;;;;23.43;28.13574;926.5239;;;;
2019/04/24 06:48:09;;;;;;;2.1;0.5;;;;;;;23.49;27.36523;926.4215;;;;
2019/04/24 06:50:34;;;;;;;2.5;0.5;;;;;;;24.42;25.86621;926.3152;;;;
2019/04/24 06:53:06;;;;;;;2.3;0.5;;;;;;;24.85;25.41895;926.3422;;;;
2019/04/24 06:55:31;;;;;;;7;0.8;;;;;;;24.54;26.5918;926.3469;;;;
2019/04/24 06:58:11;;;;;;;4.5;0.7;;;;;;;25.4;25.6748;926.3134;;;;
2019/04/24 07:00:56;;;;;;;3.4;0.4;;;;;;;26;26.38281;926.3762;;;;
2019/04/24 07:03:18;;;;;;;2.8;0.5;;;;;;;25.69;24.83984;926.4255;;;;
2019/04/24 07:05:51;;;;;;;4.5;0.9;;;;;;;24.97;25.60352;926.4789;;;;
2019/04/24 07:08:02;;;;;;;1.7;0.7;;;;;;;24.83;25.18164;926.4204;;;;
2019/04/24 07:10:42;;;;;;;3.7;0.7;;;;;;;24.07;26.48145;926.387;;;;
2019/04/24 07:17:05;;;;;;;1.9;0.5;;;;;;;25.92;24.19141;926.3636;;;;
2019/04/24 07:17:40;;;;;;;0.8;0.4;;;;;;;25.69;25.9873;926.4464;;;;
2019/04/24 07:20:07;;;;;;;2.3;0.3;;;;;;;25.64;24.23535;926.4906;;;;
2019/04/24 07:22:39;;;;;;;1.1;0.3;;;;;;;23.71;26.24805;926.5114;;;;
2019/04/24 07:24:59;;;;;;;0.6;0.2;;;;;;;25.04;25.55957;926.5407;;;;
2019/04/24 07:27:31;;;;;;;1.2;0.4;;;;;;;24.82;26.57324;926.4514;;;;
2019/04/24 07:29:57;;;;;;;0.6;0.3;;;;;;;27.36;23.20215;926.4483;;;;
2019/04/24 07:32:52;;;;;;;0.4;0.3;;;;;;;27.7;22.95801;926.5097;;;;
2019/04/24 07:37:36;;;;;;;0.7;0.3;;;;;;;29.61;20.52832;926.449;;;;
2019/04/24 07:40:11;;;;;;;2.4;0.4;;;;;;;30.09;19.39258;926.4407;;;;
2019/04/24 07:42:25;;;;;;;2.5;0.4;;;;;;;30.29;20.77344;926.4815;;;;
2019/04/24 07:44:56;;;;;;;0.6;0.4;;;;;;;31.87;17.22852;926.5027;;;;
2019/04/24 07:47:46;;;;;;;2.8;0.4;;;;;;;31.85;17.07129;926.4755;;;;
2019/04/24 07:50:17;;;;;;;1;0.3;;;;;;;28.61;19.2334;926.4034;;;;
2019/04/24 07:52:39;;;;;;;6.7;0.7;;;;;;;30.07;18.11426;926.3439;;;;
2019/04/24 07:55:05;;;;;;;1.6;0.3;;;;;;;29.95;20.07813;926.2972;;;;
2019/04/24 07:57:29;;;;;;;1.8;0.3;;;;;;;31.77;18.37402;926.3695;;;;
2019/04/24 07:59:53;;;;;;;3.3;0.6;;;;;;;32.45;17.42969;926.449;;;;
2019/04/24 08:02:25;;;;;;;2.7;0.5;;;;;;;31.42;17.22266;926.4409;;;;
2019/04/24 08:04:44;;;;;;;1.5;0.4;;;;;;;32.55;18.16602;926.5461;;;;
2019/04/24 08:07:09;;;;;;;5.2;0.7;;;;;;;33.38;16.55176;926.47;;;;
2019/04/24 08:11:59;;;;;;;1.3;0.5;;;;;;;31.76;16.67285;926.4711;;;;
2019/04/24 08:14:27;;;;;;;2.5;0.3;;;;;;;30.73;17.51953;926.3962;;;;
2019/04/24 08:17:01;;;;;;;2.6;0.3;;;;;;;29.39;19.64844;926.371;;;;
2019/04/24 08:19:27;;;;;;;1.1;0.3;;;;;;;31.15;19.55762;926.3236;;;;
2019/04/24 08:21:52;;;;;;;16.8;0.7;;;;;;;28.16;19.21484;926.2466;;;;
2019/04/24 08:24:17;;;;;;;2.3;0.5;;;;;;;27.28;20.79004;926.2528;;;;
2019/04/24 08:26:45;;;;;;;4.9;0.5;;;;;;;27.16;21.28223;926.3284;;;;
2019/04/24 08:29:08;;;;;;;2.6;0.5;;;;;;;27.62;19.58301;926.3974;;;;
2019/04/24 08:32:07;;;;;;;2.6;0.5;;;;;;;27.38;19.9043;926.4625;;;;
2019/04/24 08:33:58;;;;;;;2.6;0.5;;;;;;;27.53;20.40918;926.4742;;;;
2019/04/24 08:36:29;;;;;;;2;0.4;;;;;;;28.52;20.14551;926.456;;;;
2019/04/24 08:41:19;;;;;;;2.1;0.5;;;;;;;28.34;19.61426;926.4097;;;;
2019/04/24 08:43:40;;;;;;;4.5;0.6;;;;;;;28.43;18.79785;926.4324;;;;
2019/04/24 08:46:09;;;;;;;5.1;1;;;;;;;28.23;20.97656;926.5039;;;;
2019/04/24 08:48:30;;;;;;;3.5;0.6;;;;;;;28.61;20.11426;926.5005;;;;
2019/04/24 08:51:04;;;;;;;5.5;0.6;;;;;;;27.43;20.09668;926.5616;;;;
2019/04/24 08:53:21;;;;;;;6.1;0.6;;;;;;;28.49;21.03613;926.5087;;;;
2019/04/24 08:55:49;;;;;;;2.2;0.6;;;;;;;28.78;18.99121;926.4811;;;;
2019/04/24 08:58:12;;;;;;;2.8;0.5;;;;;;;26.89;21.25781;926.4451;;;;
2019/04/24 09:00:55;;;;;;;3.1;0.6;;;;;;;27.91;19.23926;926.4576;;;;
2019/04/24 09:03:06;;;;;;;6.6;1;;;;;;;26.95;20.05176;926.5179;;;;
2019/04/24 09:05:32;;;;;;;3.7;0.6;;;;;;;26.56;21.51465;926.4994;;;;
2019/04/24 09:07:58;;;;;;;5.7;0.6;;;;;;;27.5;19.92188;926.5491;;;;
2019/04/24 09:10:28;;;;;;;7.3;1;;;;;;;26.82;21.21875;926.3918;;;;
2019/04/24 09:12:57;;;;;;;3.7;0.7;;;;;;;26.01;22.42188;926.4388;;;;
2019/04/24 09:15:13;;;;;;;2.9;0.6;;;;;;;27.27;19.50879;926.4465;;;;
2019/04/24 09:17:35;;;;;;;5.2;0.6;;;;;;;26.32;19.90527;926.4638;;;;
2019/04/24 09:20:03;;;;;;;4.4;0.8;;;;;;;26.13;21.25684;926.3967;;;;
2019/04/24 09:22:26;;;;;;;4.2;0.8;;;;;;;25.91;22.90234;926.4993;;;;
2019/04/24 09:27:20;;;;;;;4;0.5;;;;;;;27.53;19.50781;926.4835;;;;
2019/04/24 09:29:41;;;;;;;3.5;0.7;;;;;;;26.71;22.19629;926.4084;;;;
2019/04/24 09:32:08;;;;;;;1.4;0.4;;;;;;;25.73;23.1875;926.3406;;;;
2019/04/24 09:34:35;;;;;;;1.8;0.6;;;;;;;26.53;22.12891;926.2905;;;;
2019/04/24 09:37:01;;;;;;;3.3;0.6;;;;;;;25.98;21.74707;926.4481;;;;
2019/04/24 09:39:33;;;;;;;3.9;0.6;;;;;;;25.87;22.46191;926.4252;;;;
2019/04/24 09:41:47;;;;;;;2.9;0.5;;;;;;;26.12;25.10059;926.415;;;;
2019/04/24 09:44:15;;;;;;;3.8;0.6;;;;;;;26.85;22.51074;926.4142;;;;
2019/04/24 09:46:40;;;;;;;10.3;1;;;;;;;27.56;21.49121;926.4333;;;;
2019/04/24 09:49:06;;;;;;;2.2;0.7;;;;;;;26.32;23.16016;926.2719;;;;
2019/04/24 09:51:31;;;;;;;2.9;0.5;;;;;;;25.38;24.29199;926.3357;;;;
2019/04/24 09:54:28;;;;;;;11.4;0.8;;;;;;;25.8;22.80176;926.433;;;;
2019/04/24 09:56:27;;;;;;;9.4;0.9;;;;;;;26.53;21.42969;926.4081;;;;
2019/04/24 09:59:01;;;;;;;12.8;0.9;;;;;;;26.16;22.22852;926.2686;;;;
2019/04/24 10:01:53;;;;;;;14.3;0.9;;;;;;;25.46;22.09961;926.247;;;;
2019/04/24 10:06:20;;;;;;;29.9;1.9;;;;;;;25.79;23.4873;926.1994;;;;
2019/04/24 10:08:45;;;;;;;8.5;0.7;;;;;;;25.92;23.32813;926.1978;;;;
2019/04/24 10:11:10;;;;;;;13.9;0.8;;;;;;;26.06;23.00488;926.3122;;;;
2019/04/24 10:13:59;;;;;;;2.5;0.6;;;;;;;26.33;22.7334;926.3789;;;;
2019/04/24 10:16:01;;;;;;;4.6;0.5;;;;;;;25.97;22.36035;926.4377;;;;
2019/04/24 10:18:40;;;;;;;4.3;0.3;;;;;;;25.59;23.19238;926.407;;;;
2019/04/24 10:20:55;;;;;;;1.4;0.4;;;;;;;25.58;23.21582;926.4097;;;;
2019/04/24 10:23:26;;;;;;;3.6;0.2;;;;;;;25.47;22.92676;926.38;;;;
2019/04/24 10:25:41;;;;;;;5.1;0.5;;;;;;;25.13;23.94727;926.478;;;;
2019/04/24 10:30:44;;;;;;;3.2;0.6;;;;;;;25.34;23.87598;926.551;;;;
2019/04/24 10:33:16;;;;;;;2.5;0.4;;;;;;;24.87;24.14648;926.5963;;;;
2019/04/24 10:35:46;;;;;;;2.8;0.3;;;;;;;23.42;25.84375;926.3858;;;;
2019/04/24 10:37:53;;;;;;;6.4;0.7;;;;;;;23.53;25.88477;926.5842;;;;
2019/04/24 10:40:36;;;;;;;3.7;0.4;;;;;;;24.5;25.31641;926.6372;;;;
2019/04/24 10:42:51;;;;;;;3.4;0.4;;;;;;;24.8;24.62598;926.5374;;;;
2019/04/24 10:45:06;;;;;;;3;0.4;;;;;;;24.08;24.92871;926.4065;;;;
2019/04/24 10:48:13;;;;;;;1.7;0.5;;;;;;;24.08;26.14063;926.5028;;;;
2019/04/24 10:49:57;;;;;;;3.4;0.4;;;;;;;23.85;26.28027;926.4628;;;;
2019/04/24 10:52:25;;;;;;;2.4;0.4;;;;;;;23.51;26.90723;926.5269;;;;
2019/04/24 10:54:45;;;;;;;2.3;0.4;;;;;;;23.65;27.19824;926.5645;;;;
2019/04/24 10:57:10;;;;;;;4.9;0.4;;;;;;;24.06;26.13965;926.5627;;;;
2019/04/24 10:59:35;;;;;;;5.4;0.4;;;;;;;24.01;25.9248;926.6403;;;;
2019/04/24 11:02:17;;;;;;;2;0.6;;;;;;;24.17;25.86328;926.6605;;;;
2019/04/24 11:04:34;;;;;;;2.7;0.4;;;;;;;24.41;25.5;926.6694;;;;
2019/04/24 11:08:11;;;;;;;2.7;0.4;;;;;;;24.73;24.94043;926.6807;;;;
2019/04/24 11:11:47;;;;;;;1.7;0.5;;;;;;;25.23;23.45801;926.6959;;;;
2019/04/24 11:14:14;;;;;;;3.4;0.6;;;;;;;25.66;23.52734;926.7307;;;;
2019/04/24 11:19:01;;;;;;;3.2;0.4;;;;;;;25.34;24.05273;926.8248;;;;
2019/04/24 11:21:26;;;;;;;6.2;0.5;;;;;;;24.6;24.32031;926.8105;;;;
2019/04/24 11:23:46;;;;;;;1.6;0.3;;;;;;;23.61;25.67871;926.7877;;;;
2019/04/24 11:26:12;;;;;;;3.6;0.6;;;;;;;23.74;26.19141;926.8198;;;;
2019/04/24 11:28:47;;;;;;;5.4;0.6;;;;;;;23.84;25.15039;926.8635;;;;
2019/04/24 11:31:08;;;;;;;2.6;0.5;;;;;;;23.98;24.80469;926.8614;;;;
2019/04/24 11:33:33;;;;;;;4.6;0.8;;;;;;;23.89;25.16406;926.8298;;;;
2019/04/24 11:38:24;;;;;;;4.7;0.6;;;;;;;23.65;26.65723;926.8467;;;;
2019/04/24 11:40:51;;;;;;;5.4;0.5;;;;;;;23.61;25.7959;926.858;;;;
2019/04/24 11:43:09;;;;;;;9;0.8;;;;;;;23.54;25.40332;926.8859;;;;
2019/04/24 11:45:58;;;;;;;3.5;0.8;;;;;;;23.46;27.25684;926.8608;;;;
2019/04/24 11:48:14;;;;;;;2.8;0.5;;;;;;;23.31;27.02344;926.9506;;;;
2019/04/24 11:50:24;;;;;;;4.9;0.5;;;;;;;23.28;26.37598;926.8984;;;;
2019/04/24 11:52:54;;;;;;;15;0.8;;;;;;;23.08;26.89258;926.8878;;;;
2019/04/24 11:55:13;;;;;;;6.6;0.7;;;;;;;22.9;26.7998;927.0212;;;;
2019/04/24 12:00:03;;;;;;;2;0.5;;;;;;;23.16;26.0166;927;;;;
2019/04/24 12:02:36;;;;;;;3.5;0.8;;;;;;;23.07;26.25781;927.015;;;;
2019/04/24 12:04:59;;;;;;;8.1;0.9;;;;;;;22.8;27.05176;927.0107;;;;
2019/04/24 12:07:24;;;;;;;2.7;0.8;;;;;;;22.87;27.0791;926.9742;;;;
2019/04/24 12:09:56;;;;;;;14.8;1;;;;;;;22.63;27.83984;926.947;;;;
2019/04/24 12:12:37;;;;;;;3.3;0.7;;;;;;;22.21;27.94238;926.9875;;;;
2019/04/24 12:14:49;;;;;;;3.2;0.8;;;;;;;22.04;29.22168;927.0489;;;;
2019/04/24 12:17:45;;;;;;;5.3;1.1;;;;;;;21.45;31.45313;927.0421;;;;
2019/04/24 12:20:04;;;;;;;8;1;;;;;;;21.31;30.55371;927.0852;;;;
2019/04/24 12:22:22;;;;;;;3.9;0.7;;;;;;;21.41;31.05176;927.1255;;;;
2019/04/24 12:24:48;;;;;;;7;1.1;;;;;;;21.51;30.80176;927.188;;;;
2019/04/24 12:27:22;;;;;;;3.5;0.7;;;;;;;21.46;30.17773;927.0837;;;;
2019/04/24 12:29:38;;;;;;;4.6;0.9;;;;;;;21.93;30.85352;927.1705;;;;
2019/04/24 12:32:26;;;;;;;9.9;1;;;;;;;22.34;29.39258;927.1928;;;;
2019/04/24 12:34:50;;;;;;;4.5;0.9;;;;;;;21.46;29.72168;927.1873;;;;
2019/04/24 12:37:06;;;;;;;5.4;1.1;;;;;;;20.99;31.66602;927.103;;;;
2019/04/24 12:41:57;;;;;;;3.1;0.9;;;;;;;21.26;29.71973;927.1403;;;;
2019/04/24 12:44:26;;;;;;;3.9;0.9;;;;;;;21.47;29.68652;927.1862;;;;
2019/04/24 12:46:49;;;;;;;3.5;0.8;;;;;;;21.47;29.93262;927.3106;;;;
2019/04/24 12:49:12;;;;;;;6.3;0.9;;;;;;;21.77;29.22656;927.2592;;;;
2019/04/24 12:51:41;;;;;;;7.3;1.1;;;;;;;21.78;28.99316;927.1724;;;;
2019/04/24 12:54:05;;;;;;;9.7;0.9;;;;;;;21.91;27.94727;927.0991;;;;
2019/04/24 12:57:15;;;;;;;5.3;0.8;;;;;;;21.94;27.25781;927.0683;;;;
2019/04/24 12:59:14;;;;;;;4;1.1;;;;;;;21.94;26.83594;927.1033;;;;
2019/04/24 13:01:22;;;;;;;6;0.8;;;;;;;21.66;27.08887;927.0776;;;;
2019/04/24 13:05:04;;;;;;;3.6;1;;;;;;;21.61;27.20215;927.1038;;;;
2019/04/24 13:06:11;;;;;;;5.7;0.9;;;;;;;21.73;26.95215;927.1964;;;;
2019/04/24 13:08:34;;;;;;;2.9;0.9;;;;;;;21.7;27.38281;927.0767;;;;
2019/04/24 13:10:59;;;;;;;3.7;1.3;;;;;;;21.66;27.36914;927.1514;;;;
2019/04/24 13:13:38;;;;;;;6.1;1.3;;;;;;;21.99;27.51855;927.0779;;;;
2019/04/24 13:15:53;;;;;;;4.3;1;;;;;;;22.3;27.87793;927.0691;;;;
2019/04/24 13:18:19;;;;;;;3.8;1.1;;;;;;;22.39;26.58105;927.0895;;;;
2019/04/24 13:20:39;;;;;;;5.2;0.9;;;;;;;22.86;25.69336;927.0352;;;;
2019/04/24 13:23:06;;;;;;;5.2;0.9;;;;;;;23.3;25.55469;927.0247;;;;
2019/04/24 13:32:24;;;;;;;6.3;1.1;;;;;;;21.92;28.76758;926.8293;;;;
2019/04/24 13:34:46;;;;;;;5.7;1;;;;;;;21.99;28.35059;926.9274;;;;
2019/04/24 13:37:15;;;;;;;6;1.1;;;;;;;22.11;28.81543;926.8308;;;;
2019/04/24 13:39:41;;;;;;;3;0.9;;;;;;;22.09;27.61914;926.7813;;;;
2019/04/24 13:42:16;;;;;;;2.9;0.9;;;;;;;22.77;28.02441;926.8377;;;;
2019/04/24 13:44:54;;;;;;;10.8;1.1;;;;;;;23.07;28.64258;926.6863;;;;
2019/04/24 13:47:26;;;;;;;3.9;0.9;;;;;;;22.43;27.56836;926.6631;;;;
2019/04/24 13:49:54;;;;;;;5.4;0.9;;;;;;;22.51;28.99414;926.5977;;;;
2019/04/24 13:52:19;;;;;;;3.3;0.9;;;;;;;22.87;28.46484;926.6625;;;;
2019/04/24 13:54:44;;;;;;;9.1;1.2;;;;;;;22.94;27.55371;926.6032;;;;
2019/04/24 13:57:09;;;;;;;3.8;0.8;;;;;;;23.62;25.53711;926.5576;;;;
2019/04/24 13:59:34;;;;;;;4.5;1.1;;;;;;;23.33;27.10742;926.553;;;;
2019/04/24 14:02:00;;;;;;;5.6;1.1;;;;;;;23.73;24.25;926.5427;;;;
2019/04/24 14:04:25;;;;;;;4;1.1;;;;;;;24.3;25.23535;926.4661;;;;
2019/04/24 14:06:50;;;;;;;6.5;1.1;;;;;;;24.55;25.54297;926.4589;;;;
2019/04/24 14:09:19;;;;;;;5;1;;;;;;;23.63;25.83203;926.2783;;;;
2019/04/24 14:11:40;;;;;;;8.2;1.1;;;;;;;22.88;26.85742;926.3872;;;;
2019/04/24 14:14:09;;;;;;;6.5;1;;;;;;;22.88;26.12988;926.3132;;;;
2019/04/24 14:16:35;;;;;;;5.2;1.1;;;;;;;23.23;26.56055;926.2782;;;;
2019/04/24 14:19:20;;;;;;;5.2;1.4;;;;;;;23.05;25.7627;926.282;;;;
2019/04/24 14:21:38;;;;;;;2.8;1;;;;;;;23.58;24.8877;926.2739;;;;
2019/04/24 14:23:59;;;;;;;9.5;1.3;;;;;;;24.22;26.99707;926.2102;;;;
2019/04/24 14:26:24;;;;;;;5.5;1;;;;;;;23.52;27.09668;926.1304;;;;
2019/04/24 14:28:49;;;;;;;2.6;1;;;;;;;23.61;26.74805;926.1557;;;;
2019/04/24 14:31:14;;;;;;;3;1;;;;;;;23.56;26.14551;926.2202;;;;
2019/04/24 14:33:50;;;;;;;2.6;1.1;;;;;;;23.42;26.29004;926.0347;;;;
2019/04/24 14:36:15;;;;;;;5;1.1;;;;;;;22.95;26.9082;926.1343;;;;
2019/04/24 14:38:40;;;;;;;2.4;1.1;;;;;;;23.48;26.64648;926.1601;;;;
2019/04/24 14:41:06;;;;;;;9.3;1.2;;;;;;;23.6;24.3125;926.0828;;;;
2019/04/24 14:45:59;;;;;;;4.9;1.1;;;;;;;24.22;23.68652;926.0541;;;;
2019/04/24 14:48:21;;;;;;;31.1;2.4;;;;;;;24.05;25.31445;926.0173;;;;
2019/04/24 14:50:51;;;;;;;4.9;1;;;;;;;23.66;26.30371;925.9221;;;;
2019/04/24 14:53:21;;;;;;;10;1.3;;;;;;;23.38;26.98145;925.9981;;;;
2019/04/24 14:55:44;;;;;;;4;1;;;;;;;23.58;26.51172;926.0087;;;;
2019/04/24 14:58:30;;;;;;;3.1;1.3;;;;;;;23.73;24.67285;925.9796;;;;
2019/04/24 15:01:01;;;;;;;5.1;1;;;;;;;23.76;25.05078;925.9744;;;;
2019/04/24 15:03:26;;;;;;;6.2;1.4;;;;;;;23.65;25.19824;925.9272;;;;
2019/04/24 15:05:56;;;;;;;3.3;1;;;;;;;23.92;24.22461;925.8997;;;;
2019/04/24 15:08:22;;;;;;;5.4;0.9;;;;;;;23.89;24.88184;925.871;;;;
2019/04/24 15:10:55;;;;;;;5.4;1.2;;;;;;;23.85;24.18555;925.8813;;;;
2019/04/24 15:13:22;;;;;;;2.5;1.1;;;;;;;23.79;23.73438;925.8653;;;;
2019/04/24 15:16:12;;;;;;;5.8;1.2;;;;;;;23.53;25.08496;925.8262;;;;
2019/04/24 15:18:23;;;;;;;4;1.2;;;;;;;23.62;24.47852;925.8293;;;;